createdAt,value
2023-04-24T00:01:05.807Z,0.65
2023-04-24T00:03:34.868Z,0.57
2023-04-24T00:06:04.304Z,1.17
2023-04-24T00:08:32.696Z,0.70
2023-04-24T00:11:01.023Z,0.77
2023-04-24T00:13:30.340Z,0.90
2023-04-24T00:15:58.780Z,0.90
2023-04-24T00:18:27.257Z,1.25
2023-04-24T00:20:55.616Z,0.68
2023-04-24T00:23:23.938Z,0.50
2023-04-24T00:25:52.229Z,0.73
2023-04-24T00:28:21.094Z,1.00
2023-04-24T00:30:49.323Z,0.57
2023-04-24T00:33:17.766Z,0.90
2023-04-24T00:35:46.268Z,0.70
2023-04-24T00:38:14.671Z,0.77
2023-04-24T00:40:42.952Z,0.73
2023-04-24T00:43:11.721Z,0.90
2023-04-24T00:45:40.065Z,1.10
2023-04-24T00:48:09.731Z,0.80
2023-04-24T00:50:41.453Z,1.30
2023-04-24T00:53:10.041Z,1.00
2023-04-24T00:55:39.263Z,0.90
2023-04-24T00:58:07.588Z,1.00
2023-04-24T01:00:36.955Z,0.90
2023-04-24T01:03:08.033Z,1.10
2023-04-24T01:05:36.584Z,1.15
2023-04-24T01:08:05.424Z,1.20
2023-04-24T01:10:37.108Z,1.40
2023-04-24T01:13:05.563Z,1.10
2023-04-24T01:15:33.928Z,1.00
2023-04-24T01:18:02.283Z,1.00
2023-04-24T01:20:31.959Z,1.65
2023-04-24T01:23:00.558Z,1.27
2023-04-24T01:25:30.239Z,0.95
2023-04-24T01:27:59.188Z,1.30
2023-04-24T01:30:28.502Z,1.30
2023-04-24T01:32:57.972Z,1.10
2023-04-24T01:35:27.222Z,0.90
2023-04-24T01:37:55.648Z,1.10
2023-04-24T01:40:24.059Z,1.17
2023-04-24T01:42:53.250Z,1.33
2023-04-24T01:45:21.866Z,1.27
2023-04-24T01:47:51.860Z,1.35
2023-04-24T01:50:20.808Z,1.20
2023-04-24T01:52:49.084Z,1.30
2023-04-24T01:55:17.375Z,1.52
2023-04-24T01:57:45.609Z,1.17
2023-04-24T02:00:14.226Z,1.45
2023-04-24T02:02:45.709Z,1.25
2023-04-24T02:05:16.110Z,1.30
2023-04-24T02:07:44.401Z,1.13
2023-04-24T02:10:13.144Z,1.30
2023-04-24T02:12:41.471Z,1.63
2023-04-24T02:15:10.672Z,1.25
2023-04-24T02:17:38.916Z,1.10
2023-04-24T02:20:10.468Z,1.48
2023-04-24T02:22:38.789Z,1.27
2023-04-24T02:25:07.853Z,1.10
2023-04-24T02:27:36.098Z,2.00
2023-04-24T02:30:05.074Z,1.77
2023-04-24T02:32:33.340Z,1.80
2023-04-24T02:35:01.602Z,1.60
2023-04-24T02:37:29.912Z,1.70
2023-04-24T02:39:58.209Z,1.50
2023-04-24T02:42:26.591Z,1.52
2023-04-24T02:44:54.965Z,1.38
2023-04-24T02:47:23.383Z,1.50
2023-04-24T02:49:51.641Z,1.80
2023-04-24T02:52:19.888Z,1.42
2023-04-24T02:54:48.155Z,1.40
2023-04-24T02:57:16.987Z,1.98
2023-04-24T02:59:45.297Z,1.70
2023-04-24T03:02:14.035Z,1.70
2023-04-24T03:04:42.454Z,2.17
2023-04-24T03:07:11.154Z,1.65
2023-04-24T03:09:43.474Z,1.83
2023-04-24T03:12:11.981Z,1.73
2023-04-24T03:14:40.755Z,1.90
2023-04-24T03:17:08.984Z,1.40
2023-04-24T03:19:37.326Z,1.73
2023-04-24T03:22:06.229Z,2.00
2023-04-24T03:24:34.500Z,1.52
2023-04-24T03:27:02.728Z,1.80
2023-04-24T03:29:31.115Z,2.08
2023-04-24T03:31:59.464Z,2.08
2023-04-24T03:34:28.273Z,1.40
2023-04-24T03:36:56.567Z,1.63
2023-04-24T03:39:24.871Z,1.65
2023-04-24T03:41:53.100Z,1.85
2023-04-24T03:44:21.424Z,2.33
2023-04-24T03:46:49.788Z,2.55
2023-04-24T03:49:18.066Z,1.85
2023-04-24T03:51:46.343Z,2.25
2023-04-24T03:54:15.567Z,1.77
2023-04-24T03:56:43.844Z,2.22
2023-04-24T03:59:12.220Z,2.53
2023-04-24T04:01:43.903Z,2.45
2023-04-24T04:04:12.643Z,2.53
2023-04-24T04:06:41.747Z,2.50
2023-04-24T04:09:10.542Z,1.98
2023-04-24T04:11:39.042Z,1.95
2023-04-24T04:14:07.911Z,3.38
2023-04-24T04:16:38.130Z,3.22
2023-04-24T04:19:07.312Z,2.37
2023-04-24T04:21:35.601Z,2.70
2023-04-24T04:24:03.939Z,2.75
2023-04-24T04:26:34.434Z,2.97
2023-04-24T04:29:02.834Z,2.65
2023-04-24T04:31:32.066Z,2.45
2023-04-24T04:34:00.780Z,2.60
2023-04-24T04:36:31.226Z,2.53
2023-04-24T04:39:01.228Z,3.63
2023-04-24T04:41:29.976Z,2.63
2023-04-24T04:44:00.478Z,2.60
2023-04-24T04:46:28.735Z,2.78
2023-04-24T04:48:58.604Z,2.70
2023-04-24T04:51:26.965Z,2.88
2023-04-24T04:53:55.532Z,3.40
2023-04-24T04:56:24.194Z,2.40
2023-04-24T04:58:52.431Z,3.05
2023-04-24T05:01:21.112Z,3.05
2023-04-24T05:03:49.551Z,3.33
2023-04-24T05:06:18.099Z,2.65
2023-04-24T05:08:46.594Z,3.22
2023-04-24T05:11:14.971Z,3.63
2023-04-24T05:13:43.305Z,2.92
2023-04-24T05:16:11.789Z,3.35
2023-04-24T05:18:40.155Z,3.20
2023-04-24T05:21:08.569Z,4.45
2023-04-24T05:23:36.869Z,3.70
2023-04-24T05:26:07.355Z,3.22
2023-04-24T05:28:38.379Z,2.95
2023-04-24T05:31:07.344Z,3.53
2023-04-24T05:33:35.668Z,3.90
2023-04-24T05:36:03.946Z,2.53
2023-04-24T05:38:32.284Z,3.22
2023-04-24T05:41:00.573Z,4.05
2023-04-24T05:43:29.337Z,3.35
2023-04-24T05:45:57.674Z,3.63
2023-04-24T05:48:26.361Z,4.28
2023-04-24T05:50:54.656Z,3.35
2023-04-24T05:53:22.914Z,2.80
2023-04-24T05:55:51.488Z,3.80
2023-04-24T05:58:19.729Z,3.40
2023-04-24T06:00:48.726Z,3.90
2023-04-24T06:03:17.713Z,4.20
2023-04-24T06:05:46.126Z,3.97
2023-04-24T06:08:14.914Z,3.17
2023-04-24T06:10:43.228Z,4.60
2023-04-24T06:13:11.616Z,4.45
2023-04-24T06:15:40.388Z,4.18
2023-04-24T06:18:08.727Z,3.13
2023-04-24T06:20:37.072Z,4.78
2023-04-24T06:23:05.918Z,3.25
2023-04-24T06:25:34.532Z,3.35
2023-04-24T06:28:04.165Z,3.45
2023-04-24T06:30:32.582Z,3.90
2023-04-24T06:33:09.213Z,3.50
2023-04-24T06:35:47.437Z,4.05
2023-04-24T06:38:15.979Z,3.15
2023-04-24T06:40:44.815Z,3.83
2023-04-24T06:43:13.742Z,3.30
2023-04-24T06:45:42.130Z,3.20
2023-04-24T06:48:10.563Z,4.03
2023-04-24T06:50:38.964Z,3.05
2023-04-24T06:53:07.283Z,3.65
2023-04-24T06:55:35.537Z,3.25
2023-04-24T06:58:03.854Z,3.08
2023-04-24T07:01:05.001Z,3.35
2023-04-24T07:03:33.604Z,3.60
2023-04-24T07:06:02.228Z,4.13
2023-04-24T07:08:32.552Z,3.22
2023-04-24T07:11:01.564Z,3.67
2023-04-24T07:13:29.874Z,4.40
2023-04-24T07:15:58.391Z,4.63
2023-04-24T07:18:26.716Z,3.60
2023-04-24T07:20:54.973Z,3.80
2023-04-24T07:23:23.269Z,3.80
2023-04-24T07:25:51.624Z,3.72
2023-04-24T07:28:20.452Z,2.90
2023-04-24T07:30:48.665Z,4.80
2023-04-24T07:33:17.417Z,3.85
2023-04-24T07:35:45.726Z,3.47
2023-04-24T07:38:14.029Z,3.58
2023-04-24T07:40:42.934Z,4.13
2023-04-24T07:43:11.690Z,3.42
2023-04-24T07:45:41.482Z,3.28
2023-04-24T07:48:10.855Z,3.45
2023-04-24T07:50:39.227Z,4.40
2023-04-24T07:53:07.445Z,3.70
2023-04-24T07:55:35.855Z,4.18
2023-04-24T07:58:04.545Z,3.35
2023-04-24T08:00:32.798Z,3.58
2023-04-24T08:03:01.226Z,3.15
2023-04-24T08:05:30.494Z,3.38
2023-04-24T08:07:58.857Z,3.53
2023-04-24T08:10:27.664Z,4.18
2023-04-24T08:12:57.202Z,3.90
2023-04-24T08:15:25.861Z,3.78
2023-04-24T08:17:54.286Z,3.25
2023-04-24T08:20:22.609Z,4.28
2023-04-24T08:22:51.045Z,3.75
2023-04-24T08:25:20.456Z,3.60
2023-04-24T08:27:48.763Z,4.18
2023-04-24T08:30:17.310Z,3.13
2023-04-24T08:32:46.435Z,3.63
2023-04-24T08:35:14.866Z,3.47
2023-04-24T08:37:43.289Z,4.20
2023-04-24T08:40:16.936Z,3.88
2023-04-24T08:42:46.403Z,3.30
2023-04-24T08:45:15.381Z,3.95
2023-04-24T08:47:44.462Z,3.60
2023-04-24T08:50:13.931Z,4.00
2023-04-24T08:52:44.047Z,4.00
2023-04-24T08:55:12.869Z,3.70
2023-04-24T08:57:42.181Z,3.35
2023-04-24T09:00:12.191Z,3.67
2023-04-24T09:02:54.893Z,4.05
2023-04-24T09:05:27.792Z,3.85
2023-04-24T09:07:58.335Z,3.50
2023-04-24T09:10:27.823Z,4.78
2023-04-24T09:12:57.335Z,3.72
2023-04-24T09:15:26.513Z,3.42
2023-04-24T09:17:54.862Z,3.35
2023-04-24T09:20:23.218Z,4.03
2023-04-24T09:22:57.381Z,3.58
2023-04-24T09:25:33.348Z,3.85
2023-04-24T09:28:07.805Z,3.38
2023-04-24T09:30:36.236Z,3.70
2023-04-24T09:33:16.922Z,4.35
2023-04-24T09:35:54.563Z,4.00
2023-04-24T09:38:44.005Z,3.40
2023-04-24T09:41:16.157Z,3.45
2023-04-24T09:43:45.006Z,4.15
2023-04-24T09:46:13.577Z,3.17
2023-04-24T09:48:42.383Z,4.68
2023-04-24T09:51:13.201Z,4.95
2023-04-24T09:53:41.970Z,4.68
2023-04-24T09:56:16.874Z,5.72
2023-04-24T09:58:45.146Z,4.78
2023-04-24T10:01:13.547Z,6.10
2023-04-24T10:03:45.045Z,6.13
2023-04-24T10:06:15.026Z,5.68
2023-04-24T10:08:44.194Z,4.30
2023-04-24T10:11:13.449Z,3.67
2023-04-24T10:13:42.530Z,4.32
2023-04-24T10:16:11.226Z,3.83
2023-04-24T10:18:41.629Z,3.97
2023-04-24T10:21:09.980Z,3.70
2023-04-24T10:23:39.508Z,3.78
2023-04-24T10:26:08.932Z,4.32
2023-04-24T10:28:39.163Z,3.95
2023-04-24T10:31:08.365Z,4.55
2023-04-24T10:33:37.068Z,3.88
2023-04-24T10:36:06.484Z,3.58
2023-04-24T10:38:36.001Z,3.70
2023-04-24T10:41:12.034Z,3.40
2023-04-24T10:43:42.945Z,3.47
2023-04-24T10:46:14.349Z,3.53
2023-04-24T10:53:44.258Z,3.60
2023-04-24T10:56:12.767Z,3.92
2023-04-24T10:58:46.754Z,3.78
2023-04-24T11:01:29.480Z,3.50
2023-04-24T11:04:04.519Z,3.80
2023-04-24T11:06:39.014Z,3.97
2023-04-24T11:09:09.114Z,3.95
2023-04-24T11:11:39.510Z,3.70
2023-04-24T11:14:09.286Z,4.00
2023-04-24T11:16:41.030Z,4.03
2023-04-24T11:19:20.799Z,3.78
2023-04-24T11:22:06.673Z,4.15
2023-04-24T11:24:50.076Z,3.80
2023-04-24T11:27:23.601Z,4.45
2023-04-24T11:29:58.089Z,4.68
2023-04-24T11:32:35.197Z,3.60
2023-04-24T11:35:29.498Z,4.40
2023-04-24T11:40:29.618Z,4.22
2023-04-24T11:42:58.058Z,4.30
2023-04-24T11:45:31.863Z,3.63
2023-04-24T11:48:00.876Z,3.92
2023-04-24T11:50:30.357Z,2.85
2023-04-24T11:52:59.014Z,3.58
2023-04-24T11:55:29.546Z,4.05
2023-04-24T11:58:00.762Z,4.00
2023-04-24T12:00:36.101Z,4.00
2023-04-24T12:03:14.710Z,3.53
2023-04-24T12:05:43.462Z,3.80
2023-04-24T12:08:11.852Z,3.67
2023-04-24T12:10:40.149Z,3.25
2023-04-24T12:13:13.248Z,4.00
2023-04-24T12:15:42.936Z,3.75
2023-04-24T12:18:15.007Z,3.80
2023-04-24T12:20:43.428Z,3.33
2023-04-24T12:23:11.883Z,4.22
2023-04-24T12:25:42.845Z,4.07
2023-04-24T12:28:13.663Z,3.65
2023-04-24T12:30:50.605Z,4.90
2023-04-24T12:33:23.721Z,3.88
2023-04-24T12:35:57.549Z,4.35
2023-04-24T12:38:28.415Z,4.25
2023-04-24T12:41:08.078Z,4.80
2023-04-24T12:43:37.280Z,4.03
2023-04-24T12:46:06.800Z,5.38
2023-04-24T12:48:35.237Z,3.75
2023-04-24T12:51:03.733Z,3.75
2023-04-24T12:53:32.906Z,3.78
2023-04-24T12:56:01.253Z,3.75
2023-04-24T12:58:32.392Z,4.68
2023-04-24T13:01:00.708Z,4.03
2023-04-24T13:03:29.089Z,3.78
2023-04-24T13:05:57.426Z,4.22
2023-04-24T13:08:25.939Z,4.63
2023-04-24T13:10:55.709Z,3.97
2023-04-24T13:13:24.208Z,4.43
2023-04-24T13:15:52.563Z,4.97
2023-04-24T13:18:21.390Z,4.50
2023-04-24T13:20:50.033Z,4.53
2023-04-24T13:23:21.151Z,4.30
2023-04-24T13:25:49.398Z,4.57
2023-04-24T13:28:17.691Z,4.03
2023-04-24T13:30:46.155Z,4.65
2023-04-24T13:33:14.889Z,4.78
2023-04-24T13:35:43.249Z,4.03
2023-04-24T13:38:12.106Z,4.57
2023-04-24T13:40:40.994Z,4.72
2023-04-24T13:43:09.226Z,3.88
2023-04-24T13:45:37.552Z,4.38
2023-04-24T13:48:05.991Z,4.55
2023-04-24T13:50:34.364Z,4.75
2023-04-24T13:53:03.273Z,3.90
2023-04-24T13:55:31.873Z,3.55
2023-04-24T13:58:01.027Z,4.72
2023-04-24T14:00:30.183Z,5.45
2023-04-24T14:02:58.570Z,4.32
2023-04-24T14:05:27.363Z,4.47
2023-04-24T14:07:55.618Z,4.57
2023-04-24T14:10:23.957Z,4.30
2023-04-24T14:12:53.457Z,4.03
2023-04-24T14:15:21.969Z,3.75
2023-04-24T14:17:51.837Z,4.18
2023-04-24T14:20:20.471Z,4.80
2023-04-24T14:22:49.231Z,5.10
2023-04-24T14:25:17.824Z,4.88
2023-04-24T14:27:46.295Z,4.65
2023-04-24T14:30:15.334Z,5.47
2023-04-24T14:32:43.767Z,4.63
2023-04-24T14:35:12.200Z,5.05
2023-04-24T14:37:42.952Z,4.82
2023-04-24T14:40:29.793Z,6.18
2023-04-24T14:43:00.396Z,5.55
2023-04-24T14:45:29.901Z,5.13
2023-04-24T14:47:58.919Z,4.75
2023-04-24T14:50:29.928Z,4.50
2023-04-24T14:53:03.935Z,5.00
2023-04-24T14:55:33.099Z,4.95
2023-04-24T14:58:01.537Z,4.70
2023-04-24T15:00:30.127Z,6.85
2023-04-24T15:02:58.644Z,5.25
2023-04-24T15:05:27.422Z,5.70
2023-04-24T15:08:00.963Z,5.00
2023-04-24T15:10:35.062Z,5.90
2023-04-24T15:13:06.877Z,6.32
2023-04-24T15:15:39.409Z,5.70
2023-04-24T15:18:10.137Z,6.05
2023-04-24T15:20:38.734Z,5.80
2023-04-24T15:23:11.303Z,6.63
2023-04-24T15:25:40.388Z,5.70
2023-04-24T15:28:08.751Z,5.20
2023-04-24T15:30:37.200Z,6.75
2023-04-24T15:33:08.768Z,5.47
2023-04-24T15:35:40.459Z,5.80
2023-04-24T15:38:08.799Z,4.95
2023-04-24T15:40:37.326Z,5.10
2023-04-24T15:43:05.930Z,5.05
2023-04-24T15:45:35.545Z,5.72
2023-04-24T15:48:06.975Z,4.97
2023-04-24T15:50:38.428Z,4.40
2023-04-24T15:55:38.069Z,5.07
2023-04-24T15:58:06.669Z,4.60
2023-04-24T16:00:38.157Z,5.13
2023-04-24T16:03:10.207Z,5.28
2023-04-24T16:05:39.137Z,4.60
2023-04-24T16:08:08.471Z,4.75
2023-04-24T16:10:36.805Z,4.72
2023-04-24T16:13:05.959Z,4.95
2023-04-24T16:15:37.284Z,5.60
2023-04-24T16:20:36.831Z,4.68
2023-04-24T16:23:06.058Z,4.78
2023-04-24T16:25:34.430Z,4.93
2023-04-24T16:28:02.774Z,4.65
2023-04-24T16:30:31.465Z,4.57
2023-04-24T16:32:59.967Z,6.03
2023-04-24T16:35:28.410Z,4.85
2023-04-24T16:37:57.243Z,5.00
2023-04-24T16:40:26.220Z,4.70
2023-04-24T16:42:55.738Z,4.65
2023-04-24T16:45:24.037Z,4.63
2023-04-24T16:47:52.480Z,4.68
2023-04-24T16:50:27.174Z,4.45
2023-04-24T16:52:56.211Z,4.53
2023-04-24T16:55:26.061Z,5.55
2023-04-24T16:57:57.761Z,4.85
2023-04-24T17:00:26.230Z,4.45
2023-04-24T17:02:54.602Z,5.05
2023-04-24T17:05:24.455Z,4.93
2023-04-24T17:07:52.949Z,5.03
2023-04-24T17:10:23.877Z,5.57
2023-04-24T17:12:54.564Z,5.00
2023-04-24T17:15:28.669Z,5.18
2023-04-24T17:17:58.527Z,5.88
2023-04-24T17:20:31.496Z,6.28
2023-04-24T17:22:59.841Z,5.50
2023-04-24T17:25:31.659Z,5.95
2023-04-24T17:28:36.330Z,6.28
2023-04-24T17:31:14.996Z,5.50
2023-04-24T17:33:43.385Z,5.07
2023-04-24T17:36:15.038Z,4.80
2023-04-24T17:38:43.498Z,5.10
2023-04-24T17:41:11.940Z,4.90
2023-04-24T17:43:43.133Z,5.35
2023-04-24T17:48:39.718Z,4.90
2023-04-24T17:51:07.986Z,5.30
2023-04-24T17:53:37.382Z,5.60
2023-04-24T17:56:05.754Z,6.30
2023-04-24T17:58:37.489Z,5.05
2023-04-24T18:01:08.499Z,4.35
2023-04-24T18:06:08.114Z,5.18
2023-04-24T18:08:36.702Z,4.85
2023-04-24T18:11:15.598Z,5.32
2023-04-24T18:13:43.945Z,5.28
2023-04-24T18:16:12.477Z,4.53
2023-04-24T18:18:40.799Z,4.90
2023-04-24T18:21:15.358Z,5.45
2023-04-24T18:23:43.998Z,5.15
2023-04-24T18:26:19.643Z,5.10
2023-04-24T18:28:48.357Z,5.47
2023-04-24T18:31:19.876Z,4.78
2023-04-24T18:33:50.982Z,4.05
2023-04-24T18:38:47.440Z,4.78
2023-04-24T18:41:36.766Z,4.75
2023-04-24T18:44:07.805Z,4.55
2023-04-24T18:49:13.488Z,4.65
2023-04-24T18:51:53.148Z,4.30
2023-04-24T18:54:23.297Z,4.00
2023-04-24T18:56:52.726Z,4.93
2023-04-24T18:59:22.425Z,4.13
2023-04-24T19:01:50.676Z,4.32
2023-04-24T19:04:21.748Z,3.88
2023-04-24T19:06:56.446Z,4.15
2023-04-24T19:09:24.865Z,3.88
2023-04-24T19:12:04.896Z,3.42
2023-04-24T19:14:39.936Z,4.22
2023-04-24T19:17:10.838Z,4.05
2023-04-24T19:19:43.208Z,3.67
2023-04-24T19:22:13.844Z,3.42
2023-04-24T19:24:42.344Z,4.00
2023-04-24T19:27:11.048Z,3.97
2023-04-24T19:29:39.466Z,3.28
2023-04-24T19:32:10.834Z,3.00
2023-04-24T19:34:40.575Z,3.15
2023-04-24T19:37:09.635Z,3.47
2023-04-24T19:39:38.898Z,3.60
2023-04-24T19:42:11.193Z,2.80
2023-04-24T19:44:39.690Z,3.17
2023-04-24T19:47:08.607Z,2.97
2023-04-24T19:49:40.449Z,2.83
2023-04-24T19:52:08.740Z,3.15
2023-04-24T19:54:39.537Z,2.97
2023-04-24T19:57:07.969Z,2.60
2023-04-24T19:59:38.866Z,3.33
2023-04-24T20:02:11.085Z,3.15
2023-04-24T20:04:40.272Z,3.10
2023-04-24T20:07:11.851Z,3.17
2023-04-24T20:09:40.918Z,3.08
2023-04-24T20:12:10.778Z,3.33
2023-04-24T20:14:39.010Z,2.90
2023-04-24T20:17:10.050Z,3.00
2023-04-24T20:19:41.786Z,3.67
2023-04-24T20:22:13.073Z,2.50
2023-04-24T20:24:42.068Z,2.67
2023-04-24T20:27:11.150Z,2.97
2023-04-24T20:29:39.411Z,3.15
2023-04-24T20:32:11.661Z,2.85
2023-04-24T20:34:40.277Z,2.80
2023-04-24T20:37:11.530Z,2.90
2023-04-24T20:39:40.272Z,3.03
2023-04-24T20:42:14.682Z,2.97
2023-04-24T20:44:43.226Z,2.58
2023-04-24T20:47:12.341Z,2.67
2023-04-24T20:49:41.780Z,2.63
2023-04-24T20:52:10.334Z,2.97
2023-04-24T20:54:39.133Z,3.45
2023-04-24T20:57:07.509Z,2.85
2023-04-24T20:59:35.808Z,2.83
2023-04-24T21:10:16.586Z,3.10
2023-04-24T21:13:11.042Z,2.80
2023-04-24T21:18:46.664Z,3.25
2023-04-24T21:21:15.057Z,3.45
2023-04-24T21:24:03.032Z,3.25
2023-04-24T21:27:15.774Z,3.60
2023-04-24T21:30:01.274Z,2.92
2023-04-24T21:32:33.456Z,3.10
2023-04-24T21:35:13.269Z,2.72
2023-04-24T21:41:12.982Z,3.03
2023-04-24T21:46:14.693Z,3.03
2023-04-24T21:48:43.483Z,2.90
2023-04-24T21:51:15.422Z,2.75
2023-04-24T21:54:13.605Z,2.85
2023-04-24T22:00:12.223Z,2.90
2023-04-24T22:05:18.416Z,2.58
2023-04-24T22:11:25.639Z,2.70
2023-04-24T22:15:13.372Z,2.60
2023-04-24T22:17:44.447Z,2.80
2023-04-24T22:20:17.883Z,2.75
2023-04-24T22:22:57.035Z,2.72
2023-04-24T22:28:17.573Z,3.10
2023-04-24T22:39:58.707Z,2.88
2023-04-24T22:42:44.506Z,3.00
2023-04-24T22:45:16.442Z,3.05
2023-04-24T22:47:45.188Z,2.97
2023-04-24T22:50:19.374Z,2.90
2023-04-24T22:56:16.342Z,3.67
2023-04-24T22:59:16.180Z,4.88
2023-04-24T23:05:15.209Z,3.75
2023-04-24T23:08:15.977Z,3.40
2023-04-24T23:10:47.387Z,4.22
2023-04-24T23:19:20.731Z,4.57
2023-04-24T23:21:49.215Z,3.42
2023-04-24T23:24:18.066Z,3.95
2023-04-24T23:26:46.671Z,3.22
2023-04-24T23:29:24.200Z,4.75
2023-04-24T23:34:49.910Z,3.70
2023-04-24T23:39:49.006Z,3.87
2023-04-24T23:42:17.550Z,3.22
2023-04-24T23:44:51.129Z,3.08
2023-04-24T23:47:28.029Z,2.92
2023-04-24T23:50:36.149Z,3.13
2023-04-24T23:56:47.859Z,3.00
2023-04-24T23:59:25.381Z,2.80
